WS Maaseik 1 Meer informatie WS Maaseik 1


WS Maaseik 2 Meer informatie WS Maaseik 2


Regen radar Meer informatie rain snow radar


Bezoek onze andere website:

Vorige versie
weerstation Maaseik


Bezoek ook eens deze sites:

Weerstation Geleen



We konden geen weer-waarchuwingen ophalen. Ga rechtstreeks naar de Meteoalarm site : www.meteoalarm.eu en controleer daar .

METAR rapporten vliegvelden

   
EBBR - Brussels International Airport, Belgium
Afstand tot: W 14 km
Gewijzigd: 14-08-2022 15:20
Helder  
Helder  
   Wind: OZO 5.6 km/h
Wind: OZO 5.6 km/h
Temperatuur: 31°C
Dauwpunt: 6°C
Vochtigheid: 21%
Barometer: 1006 hPa
Zicht: meer dan 10 km
Bewolking: Helder ft
EBBR 141320Z 11003KT 030V190 CAVOK 31/06 Q1006 NOSIG
EBBE - Beauvechain (Bevekom), Belgium
Afstand tot: ZZO 17 km
Gewijzigd: 14-08-2022 14:55
Helder  
Helder  
   Wind: Zuiden 14.8 km/h
Wind: Zuiden 14.8 km/h
Temperatuur: 31°C
Dauwpunt: 7°C
Vochtigheid: 22%
Barometer: 1006 hPa
Bewolking: Clear
Zicht: meer dan 10 km
Bewolking: Helder ft
EBBE 141255Z AUTO 17008KT 9999 NCD 31/07 Q1006 BLU
EBDT - Schaffen, Belgium
Afstand tot: ONO 29 km
Gewijzigd: 14-08-2022 14:55
Licht bewolkt  
Licht bewolkt  
   Wind: WNW 5.6 km/h
Wind: WNW 5.6 km/h
Temperatuur: 32°C
Dauwpunt: 8°C
Vochtigheid: 22%
Barometer: 1006 hPa
Bewolking: Few Clouds
Zicht: meer dan 10 km
Bewolking: Licht bewolkt 22000 ft
EBDT 141255Z AUTO 29003KT 9999 FEW220/// 32/08 Q1006 BLU
EBAW - Antwerp/Deurne, Belgium
Afstand tot: NNW 38 km
Gewijzigd: 14-08-2022 15:20
Helder  
Helder  
   Wind: varieert 7.4 km/h
Wind: varieert 7.4 km/h
Temperatuur: 31°C
Dauwpunt: 8°C
Vochtigheid: 24%
Barometer: 1006 hPa
Zicht: meer dan 10 km
Bewolking: Helder ft
EBAW 141320Z VRB04KT CAVOK 31/08 Q1006 NOSIG
EBCI - Charleroi/Gosselies, Belgium
Afstand tot: ZZW 51 km
Gewijzigd: 14-08-2022 15:20
Helder  
Helder  
   Wind: varieert 5.6 km/h
Wind: varieert 5.6 km/h
Temperatuur: 30°C
Dauwpunt: 5°C
Vochtigheid: 20%
Barometer: 1007 hPa
Zicht: meer dan 10 km
Bewolking: Helder ft
EBCI 141320Z VRB03KT CAVOK 30/05 Q1007 NOSIG
EBLG - Bierset/Liege, Belgium
Afstand tot: OZO 60 km
Gewijzigd: 14-08-2022 15:20
Helder  
Helder  
   Wind: varieert 7.4 km/h
Wind: varieert 7.4 km/h
Temperatuur: 32°C
Dauwpunt: 7°C
Vochtigheid: 21%
Barometer: 1006 hPa
Zicht: meer dan 10 km
Bewolking: Helder ft
EBLG 141320Z VRB04KT CAVOK 32/07 Q1006 NOSIG

Script ontwikkeld door  Saratoga-weather.org Aangepast voor de template door  Weerstation Leuven

U vindt ons ook hier:

Het Weer Aktueel

Weather Underground

AWEKAS